sensor_id;sensor_type;location;lat;lon;timestamp;P1;durP1;ratioP1;P2;durP2;ratioP2
4051;SDS011;2040;50.924;11.604;2023-07-16T00:00:50;3.60;;;2.30;;
4051;SDS011;2040;50.924;11.604;2023-07-16T00:03:18;8.43;;;2.13;;
4051;SDS011;2040;50.924;11.604;2023-07-16T00:05:44;4.63;;;2.40;;
4051;SDS011;2040;50.924;11.604;2023-07-16T00:08:12;4.80;;;2.80;;
4051;SDS011;2040;50.924;11.604;2023-07-16T00:10:38;5.57;;;2.80;;
4051;SDS011;2040;50.924;11.604;2023-07-16T00:13:04;13.23;;;2.57;;
4051;SDS011;2040;50.924;11.604;2023-07-16T00:15:29;4.23;;;2.40;;
4051;SDS011;2040;50.924;11.604;2023-07-16T00:17:55;4.80;;;2.77;;
4051;SDS011;2040;50.924;11.604;2023-07-16T00:20:21;2.50;;;2.30;;
4051;SDS011;2040;50.924;11.604;2023-07-16T00:22:49;3.50;;;2.30;;
4051;SDS011;2040;50.924;11.604;2023-07-16T00:25:14;6.27;;;2.03;;
4051;SDS011;2040;50.924;11.604;2023-07-16T00:27:40;3.07;;;2.10;;
4051;SDS011;2040;50.924;11.604;2023-07-16T00:30:06;3.33;;;2.30;;
4051;SDS011;2040;50.924;11.604;2023-07-16T00:32:32;5.13;;;2.80;;
4051;SDS011;2040;50.924;11.604;2023-07-16T00:34:58;4.37;;;2.83;;
4051;SDS011;2040;50.924;11.604;2023-07-16T00:37:23;3.33;;;2.40;;
4051;SDS011;2040;50.924;11.604;2023-07-16T00:39:49;3.77;;;2.53;;
4051;SDS011;2040;50.924;11.604;2023-07-16T00:42:15;9.50;;;2.93;;
4051;SDS011;2040;50.924;11.604;2023-07-16T00:44:40;11.33;;;3.17;;
4051;SDS011;2040;50.924;11.604;2023-07-16T00:47:06;4.70;;;2.83;;
4051;SDS011;2040;50.924;11.604;2023-07-16T00:49:31;4.07;;;2.27;;
4051;SDS011;2040;50.924;11.604;2023-07-16T00:51:58;3.70;;;2.53;;
4051;SDS011;2040;50.924;11.604;2023-07-16T00:54:25;5.73;;;2.50;;
4051;SDS011;2040;50.924;11.604;2023-07-16T00:56:51;12.00;;;2.50;;
4051;SDS011;2040;50.924;11.604;2023-07-16T00:59:17;5.37;;;2.83;;
4051;SDS011;2040;50.924;11.604;2023-07-16T01:01:42;7.63;;;2.43;;
4051;SDS011;2040;50.924;11.604;2023-07-16T01:04:08;5.30;;;3.00;;
4051;SDS011;2040;50.924;11.604;2023-07-16T01:06:45;7.63;;;2.60;;
4051;SDS011;2040;50.924;11.604;2023-07-16T01:09:16;6.77;;;3.17;;
4051;SDS011;2040;50.924;11.604;2023-07-16T01:11:43;2.93;;;2.27;;
4051;SDS011;2040;50.924;11.604;2023-07-16T01:14:10;2.80;;;2.33;;
4051;SDS011;2040;50.924;11.604;2023-07-16T01:16:38;3.37;;;2.80;;
4051;SDS011;2040;50.924;11.604;2023-07-16T01:19:05;4.20;;;2.63;;
4051;SDS011;2040;50.924;11.604;2023-07-16T01:21:32;3.60;;;2.77;;
4051;SDS011;2040;50.924;11.604;2023-07-16T01:27:16;3.90;;;2.50;;
4051;SDS011;2040;50.924;11.604;2023-07-16T01:30:02;3.90;;;2.60;;
4051;SDS011;2040;50.924;11.604;2023-07-16T01:32:32;6.47;;;2.83;;
4051;SDS011;2040;50.924;11.604;2023-07-16T01:34:58;5.07;;;2.40;;
4051;SDS011;2040;50.924;11.604;2023-07-16T01:37:25;5.30;;;3.10;;
4051;SDS011;2040;50.924;11.604;2023-07-16T01:39:50;6.40;;;3.20;;
4051;SDS011;2040;50.924;11.604;2023-07-16T01:42:16;5.63;;;3.53;;
4051;SDS011;2040;50.924;11.604;2023-07-16T01:44:41;3.60;;;3.00;;
4051;SDS011;2040;50.924;11.604;2023-07-16T01:52:58;4.80;;;2.80;;
4051;SDS011;2040;50.924;11.604;2023-07-16T01:55:23;3.97;;;2.70;;
4051;SDS011;2040;50.924;11.604;2023-07-16T01:57:49;12.53;;;3.20;;
4051;SDS011;2040;50.924;11.604;2023-07-16T02:00:14;5.30;;;2.93;;
4051;SDS011;2040;50.924;11.604;2023-07-16T02:02:40;3.17;;;2.80;;
4051;SDS011;2040;50.924;11.604;2023-07-16T02:05:05;7.20;;;3.10;;
4051;SDS011;2040;50.924;11.604;2023-07-16T02:07:31;4.07;;;3.07;;
4051;SDS011;2040;50.924;11.604;2023-07-16T02:09:57;3.40;;;2.90;;
4051;SDS011;2040;50.924;11.604;2023-07-16T02:12:22;3.70;;;2.70;;
4051;SDS011;2040;50.924;11.604;2023-07-16T02:14:48;4.10;;;2.73;;
4051;SDS011;2040;50.924;11.604;2023-07-16T02:17:13;4.47;;;2.73;;
4051;SDS011;2040;50.924;11.604;2023-07-16T02:19:39;5.50;;;2.70;;
4051;SDS011;2040;50.924;11.604;2023-07-16T02:22:05;5.70;;;2.90;;
4051;SDS011;2040;50.924;11.604;2023-07-16T02:24:30;6.03;;;3.30;;
4051;SDS011;2040;50.924;11.604;2023-07-16T02:26:56;5.90;;;2.90;;
4051;SDS011;2040;50.924;11.604;2023-07-16T02:29:21;2.73;;;2.43;;
4051;SDS011;2040;50.924;11.604;2023-07-16T02:31:47;3.40;;;2.50;;
4051;SDS011;2040;50.924;11.604;2023-07-16T02:34:13;4.13;;;2.33;;
4051;SDS011;2040;50.924;11.604;2023-07-16T02:36:39;2.60;;;2.20;;
4051;SDS011;2040;50.924;11.604;2023-07-16T02:39:05;4.03;;;3.00;;
4051;SDS011;2040;50.924;11.604;2023-07-16T02:41:30;4.30;;;2.90;;
4051;SDS011;2040;50.924;11.604;2023-07-16T02:44:00;3.43;;;2.83;;
4051;SDS011;2040;50.924;11.604;2023-07-16T02:46:26;3.13;;;2.30;;
4051;SDS011;2040;50.924;11.604;2023-07-16T02:48:52;3.40;;;3.10;;
4051;SDS011;2040;50.924;11.604;2023-07-16T02:51:18;3.67;;;2.47;;
4051;SDS011;2040;50.924;11.604;2023-07-16T02:53:43;4.23;;;2.70;;
4051;SDS011;2040;50.924;11.604;2023-07-16T02:56:09;4.20;;;2.03;;
4051;SDS011;2040;50.924;11.604;2023-07-16T02:58:34;2.40;;;2.20;;
4051;SDS011;2040;50.924;11.604;2023-07-16T03:01:00;8.17;;;2.80;;
4051;SDS011;2040;50.924;11.604;2023-07-16T03:03:25;2.57;;;2.37;;
4051;SDS011;2040;50.924;11.604;2023-07-16T03:05:51;3.60;;;2.53;;
4051;SDS011;2040;50.924;11.604;2023-07-16T03:08:16;2.37;;;2.17;;
4051;SDS011;2040;50.924;11.604;2023-07-16T03:10:42;2.60;;;2.37;;
4051;SDS011;2040;50.924;11.604;2023-07-16T03:13:07;4.83;;;2.10;;
4051;SDS011;2040;50.924;11.604;2023-07-16T03:15:33;2.80;;;1.87;;
4051;SDS011;2040;50.924;11.604;2023-07-16T03:17:59;3.00;;;2.20;;
4051;SDS011;2040;50.924;11.604;2023-07-16T03:20:24;2.57;;;2.13;;
4051;SDS011;2040;50.924;11.604;2023-07-16T03:22:50;2.17;;;1.97;;
4051;SDS011;2040;50.924;11.604;2023-07-16T03:25:15;3.30;;;2.17;;
4051;SDS011;2040;50.924;11.604;2023-07-16T03:27:41;3.50;;;2.70;;
4051;SDS011;2040;50.924;11.604;2023-07-16T03:30:06;4.60;;;2.20;;
4051;SDS011;2040;50.924;11.604;2023-07-16T03:32:32;4.23;;;2.20;;
4051;SDS011;2040;50.924;11.604;2023-07-16T03:34:58;5.70;;;2.03;;
4051;SDS011;2040;50.924;11.604;2023-07-16T03:37:23;4.80;;;2.50;;
4051;SDS011;2040;50.924;11.604;2023-07-16T03:39:50;2.33;;;2.13;;
4051;SDS011;2040;50.924;11.604;2023-07-16T03:42:16;1.97;;;1.87;;
4051;SDS011;2040;50.924;11.604;2023-07-16T03:44:41;2.60;;;2.03;;
4051;SDS011;2040;50.924;11.604;2023-07-16T03:47:07;3.00;;;2.33;;
4051;SDS011;2040;50.924;11.604;2023-07-16T03:49:33;2.60;;;2.27;;
4051;SDS011;2040;50.924;11.604;2023-07-16T03:51:58;2.80;;;2.37;;
4051;SDS011;2040;50.924;11.604;2023-07-16T03:54:24;4.80;;;2.37;;
4051;SDS011;2040;50.924;11.604;2023-07-16T03:56:49;8.90;;;2.37;;
4051;SDS011;2040;50.924;11.604;2023-07-16T03:59:15;2.40;;;2.00;;
4051;SDS011;2040;50.924;11.604;2023-07-16T04:01:40;2.87;;;2.00;;
4051;SDS011;2040;50.924;11.604;2023-07-16T04:04:06;3.40;;;2.60;;
4051;SDS011;2040;50.924;11.604;2023-07-16T04:06:31;3.03;;;1.80;;
4051;SDS011;2040;50.924;11.604;2023-07-16T04:08:57;10.17;;;2.33;;
4051;SDS011;2040;50.924;11.604;2023-07-16T04:11:23;3.17;;;2.10;;
4051;SDS011;2040;50.924;11.604;2023-07-16T04:13:48;5.73;;;2.27;;
4051;SDS011;2040;50.924;11.604;2023-07-16T04:16:15;6.67;;;2.20;;
4051;SDS011;2040;50.924;11.604;2023-07-16T04:18:40;2.43;;;2.10;;
4051;SDS011;2040;50.924;11.604;2023-07-16T04:21:06;2.57;;;1.77;;
4051;SDS011;2040;50.924;11.604;2023-07-16T04:23:31;2.20;;;2.00;;
4051;SDS011;2040;50.924;11.604;2023-07-16T04:25:57;2.77;;;2.10;;
4051;SDS011;2040;50.924;11.604;2023-07-16T04:28:22;7.60;;;1.87;;
4051;SDS011;2040;50.924;11.604;2023-07-16T04:30:48;2.10;;;1.67;;
4051;SDS011;2040;50.924;11.604;2023-07-16T04:33:13;5.03;;;2.03;;
4051;SDS011;2040;50.924;11.604;2023-07-16T04:35:39;3.20;;;1.63;;
4051;SDS011;2040;50.924;11.604;2023-07-16T04:38:05;1.93;;;1.50;;
4051;SDS011;2040;50.924;11.604;2023-07-16T04:40:30;2.43;;;1.97;;
4051;SDS011;2040;50.924;11.604;2023-07-16T04:42:56;1.97;;;1.63;;
4051;SDS011;2040;50.924;11.604;2023-07-16T04:45:22;4.27;;;1.70;;
4051;SDS011;2040;50.924;11.604;2023-07-16T04:47:47;1.70;;;1.60;;
4051;SDS011;2040;50.924;11.604;2023-07-16T04:50:13;2.63;;;1.60;;
4051;SDS011;2040;50.924;11.604;2023-07-16T04:52:38;1.83;;;1.40;;
4051;SDS011;2040;50.924;11.604;2023-07-16T04:55:04;1.80;;;1.57;;
4051;SDS011;2040;50.924;11.604;2023-07-16T04:57:31;2.50;;;1.70;;
4051;SDS011;2040;50.924;11.604;2023-07-16T04:59:57;2.87;;;1.63;;
4051;SDS011;2040;50.924;11.604;2023-07-16T05:02:23;2.27;;;1.80;;
4051;SDS011;2040;50.924;11.604;2023-07-16T05:04:48;3.30;;;2.17;;
4051;SDS011;2040;50.924;11.604;2023-07-16T05:07:14;11.00;;;2.90;;
4051;SDS011;2040;50.924;11.604;2023-07-16T05:09:40;3.10;;;2.07;;
4051;SDS011;2040;50.924;11.604;2023-07-16T05:12:06;2.23;;;2.00;;
4051;SDS011;2040;50.924;11.604;2023-07-16T05:14:42;1.67;;;1.53;;
4051;SDS011;2040;50.924;11.604;2023-07-16T05:17:12;3.23;;;1.73;;
4051;SDS011;2040;50.924;11.604;2023-07-16T05:19:38;2.30;;;1.73;;
4051;SDS011;2040;50.924;11.604;2023-07-16T05:22:04;3.10;;;1.80;;
4051;SDS011;2040;50.924;11.604;2023-07-16T05:24:30;6.57;;;2.10;;
4051;SDS011;2040;50.924;11.604;2023-07-16T05:26:56;5.77;;;2.37;;
4051;SDS011;2040;50.924;11.604;2023-07-16T05:29:22;2.33;;;2.00;;
4051;SDS011;2040;50.924;11.604;2023-07-16T05:31:50;3.13;;;2.30;;
4051;SDS011;2040;50.924;11.604;2023-07-16T05:34:15;3.60;;;1.83;;
4051;SDS011;2040;50.924;11.604;2023-07-16T05:36:42;3.30;;;2.00;;
4051;SDS011;2040;50.924;11.604;2023-07-16T05:39:11;2.80;;;2.50;;
4051;SDS011;2040;50.924;11.604;2023-07-16T05:41:39;4.60;;;2.27;;
4051;SDS011;2040;50.924;11.604;2023-07-16T05:44:06;3.90;;;2.17;;
4051;SDS011;2040;50.924;11.604;2023-07-16T05:46:32;5.23;;;1.83;;
4051;SDS011;2040;50.924;11.604;2023-07-16T05:48:59;2.90;;;2.10;;
4051;SDS011;2040;50.924;11.604;2023-07-16T05:51:24;2.90;;;1.73;;
4051;SDS011;2040;50.924;11.604;2023-07-16T05:53:50;6.90;;;1.80;;
4051;SDS011;2040;50.924;11.604;2023-07-16T05:56:15;2.77;;;1.80;;
4051;SDS011;2040;50.924;11.604;2023-07-16T05:58:41;3.70;;;1.73;;
4051;SDS011;2040;50.924;11.604;2023-07-16T06:01:08;1.80;;;1.70;;
4051;SDS011;2040;50.924;11.604;2023-07-16T06:03:34;5.90;;;1.80;;
4051;SDS011;2040;50.924;11.604;2023-07-16T06:05:59;7.10;;;2.00;;
4051;SDS011;2040;50.924;11.604;2023-07-16T06:08:25;3.30;;;1.90;;
4051;SDS011;2040;50.924;11.604;2023-07-16T06:10:51;6.07;;;2.20;;
4051;SDS011;2040;50.924;11.604;2023-07-16T06:13:17;6.30;;;1.80;;
4051;SDS011;2040;50.924;11.604;2023-07-16T06:15:42;3.87;;;1.70;;
4051;SDS011;2040;50.924;11.604;2023-07-16T06:18:09;1.90;;;1.63;;
4051;SDS011;2040;50.924;11.604;2023-07-16T06:20:34;4.40;;;2.53;;
4051;SDS011;2040;50.924;11.604;2023-07-16T06:23:00;4.73;;;1.73;;
4051;SDS011;2040;50.924;11.604;2023-07-16T06:25:25;3.50;;;1.80;;
4051;SDS011;2040;50.924;11.604;2023-07-16T06:27:51;2.60;;;1.77;;
4051;SDS011;2040;50.924;11.604;2023-07-16T06:30:20;4.20;;;1.80;;
4051;SDS011;2040;50.924;11.604;2023-07-16T06:32:56;6.87;;;2.00;;
4051;SDS011;2040;50.924;11.604;2023-07-16T06:35:30;2.80;;;1.83;;
4051;SDS011;2040;50.924;11.604;2023-07-16T06:38:09;2.97;;;1.80;;
4051;SDS011;2040;50.924;11.604;2023-07-16T06:40:57;7.33;;;1.70;;
4051;SDS011;2040;50.924;11.604;2023-07-16T06:43:36;3.40;;;1.70;;
4051;SDS011;2040;50.924;11.604;2023-07-16T06:49:00;7.90;;;1.67;;
4051;SDS011;2040;50.924;11.604;2023-07-16T06:51:37;4.43;;;1.60;;
4051;SDS011;2040;50.924;11.604;2023-07-16T06:54:03;3.90;;;1.40;;
4051;SDS011;2040;50.924;11.604;2023-07-16T06:56:36;4.10;;;2.07;;
4051;SDS011;2040;50.924;11.604;2023-07-16T07:02:18;2.83;;;1.60;;
4051;SDS011;2040;50.924;11.604;2023-07-16T07:05:10;7.37;;;2.30;;
4051;SDS011;2040;50.924;11.604;2023-07-16T07:07:36;4.23;;;1.50;;
4051;SDS011;2040;50.924;11.604;2023-07-16T07:10:01;3.43;;;1.40;;
4051;SDS011;2040;50.924;11.604;2023-07-16T07:12:27;18.10;;;3.20;;
4051;SDS011;2040;50.924;11.604;2023-07-16T07:14:53;3.63;;;1.50;;
4051;SDS011;2040;50.924;11.604;2023-07-16T07:17:18;5.00;;;1.40;;
4051;SDS011;2040;50.924;11.604;2023-07-16T07:19:44;2.77;;;1.90;;
4051;SDS011;2040;50.924;11.604;2023-07-16T07:22:10;7.47;;;1.30;;
4051;SDS011;2040;50.924;11.604;2023-07-16T07:24:36;2.30;;;1.70;;
4051;SDS011;2040;50.924;11.604;2023-07-16T07:27:01;4.50;;;1.33;;
4051;SDS011;2040;50.924;11.604;2023-07-16T07:29:27;2.40;;;1.17;;
4051;SDS011;2040;50.924;11.604;2023-07-16T07:31:53;4.23;;;1.33;;
4051;SDS011;2040;50.924;11.604;2023-07-16T07:34:19;4.63;;;1.90;;
4051;SDS011;2040;50.924;11.604;2023-07-16T07:36:44;2.73;;;1.33;;
4051;SDS011;2040;50.924;11.604;2023-07-16T07:39:12;2.73;;;1.57;;
4051;SDS011;2040;50.924;11.604;2023-07-16T07:41:41;8.20;;;1.70;;
4051;SDS011;2040;50.924;11.604;2023-07-16T07:44:07;6.43;;;1.97;;
4051;SDS011;2040;50.924;11.604;2023-07-16T07:46:32;8.87;;;1.70;;
4051;SDS011;2040;50.924;11.604;2023-07-16T07:48:59;3.70;;;1.77;;
4051;SDS011;2040;50.924;11.604;2023-07-16T07:51:25;2.30;;;1.50;;
4051;SDS011;2040;50.924;11.604;2023-07-16T07:53:51;3.00;;;1.40;;
4051;SDS011;2040;50.924;11.604;2023-07-16T07:56:16;9.00;;;2.20;;
4051;SDS011;2040;50.924;11.604;2023-07-16T07:58:42;6.33;;;2.13;;
4051;SDS011;2040;50.924;11.604;2023-07-16T08:01:08;4.40;;;1.70;;
4051;SDS011;2040;50.924;11.604;2023-07-16T08:03:34;5.10;;;1.70;;
4051;SDS011;2040;50.924;11.604;2023-07-16T08:06:00;1.40;;;1.10;;
4051;SDS011;2040;50.924;11.604;2023-07-16T08:08:26;5.10;;;1.70;;
4051;SDS011;2040;50.924;11.604;2023-07-16T08:10:52;6.30;;;1.90;;
4051;SDS011;2040;50.924;11.604;2023-07-16T08:13:18;4.57;;;1.70;;
4051;SDS011;2040;50.924;11.604;2023-07-16T08:15:44;2.50;;;1.43;;
4051;SDS011;2040;50.924;11.604;2023-07-16T08:18:09;3.07;;;1.37;;
4051;SDS011;2040;50.924;11.604;2023-07-16T08:20:35;6.67;;;1.57;;
4051;SDS011;2040;50.924;11.604;2023-07-16T08:23:01;1.77;;;1.40;;
4051;SDS011;2040;50.924;11.604;2023-07-16T08:25:27;3.67;;;1.40;;
4051;SDS011;2040;50.924;11.604;2023-07-16T08:27:53;4.03;;;1.57;;
4051;SDS011;2040;50.924;11.604;2023-07-16T08:30:19;6.53;;;1.40;;
4051;SDS011;2040;50.924;11.604;2023-07-16T08:32:45;3.10;;;1.90;;
4051;SDS011;2040;50.924;11.604;2023-07-16T08:35:11;3.53;;;1.70;;
4051;SDS011;2040;50.924;11.604;2023-07-16T08:37:44;3.50;;;1.50;;
4051;SDS011;2040;50.924;11.604;2023-07-16T08:40:11;3.83;;;1.50;;
4051;SDS011;2040;50.924;11.604;2023-07-16T08:42:38;2.00;;;1.33;;
4051;SDS011;2040;50.924;11.604;2023-07-16T08:45:08;8.00;;;1.70;;
4051;SDS011;2040;50.924;11.604;2023-07-16T08:47:35;6.03;;;1.70;;
4051;SDS011;2040;50.924;11.604;2023-07-16T08:50:01;3.40;;;1.20;;
4051;SDS011;2040;50.924;11.604;2023-07-16T08:52:27;5.43;;;1.50;;
4051;SDS011;2040;50.924;11.604;2023-07-16T08:54:53;11.13;;;1.90;;
4051;SDS011;2040;50.924;11.604;2023-07-16T08:57:19;6.30;;;1.97;;
4051;SDS011;2040;50.924;11.604;2023-07-16T08:59:49;11.77;;;2.07;;
4051;SDS011;2040;50.924;11.604;2023-07-16T09:02:19;3.50;;;1.70;;
4051;SDS011;2040;50.924;11.604;2023-07-16T09:04:48;3.57;;;1.50;;
4051;SDS011;2040;50.924;11.604;2023-07-16T09:07:16;2.90;;;1.70;;
4051;SDS011;2040;50.924;11.604;2023-07-16T09:09:42;6.00;;;1.60;;
4051;SDS011;2040;50.924;11.604;2023-07-16T09:12:12;3.30;;;1.33;;
4051;SDS011;2040;50.924;11.604;2023-07-16T09:14:37;3.13;;;1.63;;
4051;SDS011;2040;50.924;11.604;2023-07-16T09:17:06;3.37;;;1.50;;
4051;SDS011;2040;50.924;11.604;2023-07-16T09:19:32;3.03;;;1.80;;
4051;SDS011;2040;50.924;11.604;2023-07-16T09:21:58;4.47;;;1.70;;
4051;SDS011;2040;50.924;11.604;2023-07-16T09:24:23;1.80;;;1.63;;
4051;SDS011;2040;50.924;11.604;2023-07-16T09:26:53;7.70;;;1.40;;
4051;SDS011;2040;50.924;11.604;2023-07-16T09:29:20;4.83;;;1.60;;
4051;SDS011;2040;50.924;11.604;2023-07-16T09:31:59;4.20;;;1.97;;
4051;SDS011;2040;50.924;11.604;2023-07-16T09:34:27;6.23;;;1.90;;
4051;SDS011;2040;50.924;11.604;2023-07-16T09:36:54;6.73;;;1.70;;
4051;SDS011;2040;50.924;11.604;2023-07-16T09:39:21;2.23;;;1.60;;
4051;SDS011;2040;50.924;11.604;2023-07-16T09:41:48;1.50;;;1.40;;
4051;SDS011;2040;50.924;11.604;2023-07-16T09:44:15;4.77;;;1.47;;
4051;SDS011;2040;50.924;11.604;2023-07-16T09:46:47;5.03;;;1.70;;
4051;SDS011;2040;50.924;11.604;2023-07-16T09:49:14;2.90;;;1.40;;
4051;SDS011;2040;50.924;11.604;2023-07-16T09:51:40;2.87;;;1.87;;
4051;SDS011;2040;50.924;11.604;2023-07-16T09:54:08;6.53;;;1.50;;
4051;SDS011;2040;50.924;11.604;2023-07-16T09:56:39;3.17;;;1.47;;
4051;SDS011;2040;50.924;11.604;2023-07-16T09:59:13;4.87;;;1.53;;
4051;SDS011;2040;50.924;11.604;2023-07-16T10:01:41;2.80;;;1.60;;
4051;SDS011;2040;50.924;11.604;2023-07-16T10:04:11;4.50;;;1.53;;
4051;SDS011;2040;50.924;11.604;2023-07-16T10:07:25;6.23;;;1.90;;
4051;SDS011;2040;50.924;11.604;2023-07-16T10:10:07;2.00;;;1.60;;
4051;SDS011;2040;50.924;11.604;2023-07-16T10:12:37;4.80;;;1.67;;
4051;SDS011;2040;50.924;11.604;2023-07-16T10:15:04;7.63;;;1.70;;
4051;SDS011;2040;50.924;11.604;2023-07-16T10:17:31;3.80;;;1.90;;
4051;SDS011;2040;50.924;11.604;2023-07-16T10:20:06;4.50;;;1.10;;
4051;SDS011;2040;50.924;11.604;2023-07-16T10:22:36;2.13;;;1.60;;
4051;SDS011;2040;50.924;11.604;2023-07-16T10:25:07;6.03;;;1.63;;
4051;SDS011;2040;50.924;11.604;2023-07-16T10:27:47;2.80;;;1.60;;
4051;SDS011;2040;50.924;11.604;2023-07-16T10:30:17;6.80;;;2.50;;
4051;SDS011;2040;50.924;11.604;2023-07-16T10:32:54;3.30;;;1.43;;
4051;SDS011;2040;50.924;11.604;2023-07-16T10:35:47;4.37;;;1.93;;
4051;SDS011;2040;50.924;11.604;2023-07-16T10:38:18;3.10;;;1.50;;
4051;SDS011;2040;50.924;11.604;2023-07-16T10:40:52;3.20;;;1.77;;
4051;SDS011;2040;50.924;11.604;2023-07-16T10:43:17;3.23;;;1.50;;
4051;SDS011;2040;50.924;11.604;2023-07-16T10:45:45;4.47;;;1.67;;
4051;SDS011;2040;50.924;11.604;2023-07-16T10:48:30;7.73;;;1.67;;
4051;SDS011;2040;50.924;11.604;2023-07-16T10:50:59;4.53;;;1.97;;
4051;SDS011;2040;50.924;11.604;2023-07-16T10:53:24;3.43;;;1.70;;
4051;SDS011;2040;50.924;11.604;2023-07-16T10:55:55;7.53;;;1.80;;
4051;SDS011;2040;50.924;11.604;2023-07-16T10:58:26;5.70;;;2.23;;
4051;SDS011;2040;50.924;11.604;2023-07-16T11:01:01;4.93;;;2.20;;
4051;SDS011;2040;50.924;11.604;2023-07-16T11:03:31;4.80;;;1.80;;
4051;SDS011;2040;50.924;11.604;2023-07-16T11:05:57;6.17;;;1.70;;
4051;SDS011;2040;50.924;11.604;2023-07-16T11:08:23;5.03;;;1.87;;
4051;SDS011;2040;50.924;11.604;2023-07-16T11:10:55;5.30;;;1.87;;
4051;SDS011;2040;50.924;11.604;2023-07-16T11:13:27;7.67;;;1.60;;
4051;SDS011;2040;50.924;11.604;2023-07-16T11:15:56;4.20;;;1.57;;
4051;SDS011;2040;50.924;11.604;2023-07-16T11:18:31;2.87;;;1.60;;
4051;SDS011;2040;50.924;11.604;2023-07-16T11:21:16;7.13;;;1.80;;
4051;SDS011;2040;50.924;11.604;2023-07-16T11:23:44;2.77;;;1.50;;
4051;SDS011;2040;50.924;11.604;2023-07-16T11:26:10;7.13;;;2.07;;
4051;SDS011;2040;50.924;11.604;2023-07-16T11:28:37;5.63;;;1.70;;
4051;SDS011;2040;50.924;11.604;2023-07-16T11:31:12;2.57;;;1.63;;
4051;SDS011;2040;50.924;11.604;2023-07-16T11:33:43;7.60;;;1.50;;
4051;SDS011;2040;50.924;11.604;2023-07-16T11:36:12;4.10;;;1.83;;
4051;SDS011;2040;50.924;11.604;2023-07-16T11:38:38;3.17;;;1.80;;
4051;SDS011;2040;50.924;11.604;2023-07-16T11:41:04;2.90;;;1.57;;
4051;SDS011;2040;50.924;11.604;2023-07-16T11:43:36;5.87;;;1.90;;
4051;SDS011;2040;50.924;11.604;2023-07-16T11:46:13;7.17;;;2.30;;
4051;SDS011;2040;50.924;11.604;2023-07-16T11:48:41;3.50;;;1.90;;
4051;SDS011;2040;50.924;11.604;2023-07-16T11:51:06;3.40;;;2.07;;
4051;SDS011;2040;50.924;11.604;2023-07-16T11:53:40;5.03;;;1.80;;
4051;SDS011;2040;50.924;11.604;2023-07-16T11:56:38;4.10;;;1.70;;
4051;SDS011;2040;50.924;11.604;2023-07-16T11:59:13;8.13;;;1.83;;
4051;SDS011;2040;50.924;11.604;2023-07-16T12:01:41;3.20;;;1.57;;
4051;SDS011;2040;50.924;11.604;2023-07-16T12:04:17;3.27;;;1.70;;
4051;SDS011;2040;50.924;11.604;2023-07-16T12:06:52;3.07;;;1.73;;
4051;SDS011;2040;50.924;11.604;2023-07-16T12:09:23;3.80;;;2.03;;
4051;SDS011;2040;50.924;11.604;2023-07-16T12:11:56;2.77;;;1.67;;
4051;SDS011;2040;50.924;11.604;2023-07-16T12:14:34;5.83;;;1.87;;
4051;SDS011;2040;50.924;11.604;2023-07-16T12:17:02;4.43;;;1.87;;
4051;SDS011;2040;50.924;11.604;2023-07-16T12:19:37;3.77;;;2.20;;
4051;SDS011;2040;50.924;11.604;2023-07-16T12:22:24;4.67;;;1.60;;
4051;SDS011;2040;50.924;11.604;2023-07-16T12:24:50;4.50;;;1.97;;
4051;SDS011;2040;50.924;11.604;2023-07-16T12:27:22;5.37;;;2.37;;
4051;SDS011;2040;50.924;11.604;2023-07-16T12:29:53;5.87;;;2.17;;
4051;SDS011;2040;50.924;11.604;2023-07-16T12:35:42;4.60;;;2.00;;
4051;SDS011;2040;50.924;11.604;2023-07-16T12:38:10;2.83;;;1.83;;
4051;SDS011;2040;50.924;11.604;2023-07-16T12:40:44;2.67;;;1.87;;
4051;SDS011;2040;50.924;11.604;2023-07-16T12:43:17;3.00;;;1.83;;
4051;SDS011;2040;50.924;11.604;2023-07-16T12:45:43;6.33;;;2.33;;
4051;SDS011;2040;50.924;11.604;2023-07-16T12:48:11;8.67;;;1.77;;
4051;SDS011;2040;50.924;11.604;2023-07-16T12:50:39;4.30;;;2.03;;
4051;SDS011;2040;50.924;11.604;2023-07-16T12:53:10;6.67;;;2.30;;
4051;SDS011;2040;50.924;11.604;2023-07-16T12:55:51;4.70;;;1.93;;
4051;SDS011;2040;50.924;11.604;2023-07-16T12:58:18;6.23;;;2.47;;
4051;SDS011;2040;50.924;11.604;2023-07-16T13:00:52;8.00;;;2.10;;
4051;SDS011;2040;50.924;11.604;2023-07-16T13:03:27;5.57;;;2.47;;
4051;SDS011;2040;50.924;11.604;2023-07-16T13:05:53;4.13;;;1.83;;
4051;SDS011;2040;50.924;11.604;2023-07-16T13:08:19;2.70;;;1.80;;
4051;SDS011;2040;50.924;11.604;2023-07-16T13:10:53;8.03;;;2.17;;
4051;SDS011;2040;50.924;11.604;2023-07-16T13:17:04;4.30;;;2.33;;
4051;SDS011;2040;50.924;11.604;2023-07-16T13:19:44;2.60;;;2.40;;
4051;SDS011;2040;50.924;11.604;2023-07-16T13:22:28;3.77;;;2.33;;
4051;SDS011;2040;50.924;11.604;2023-07-16T13:24:54;5.90;;;2.17;;
4051;SDS011;2040;50.924;11.604;2023-07-16T13:27:40;16.00;;;3.40;;
4051;SDS011;2040;50.924;11.604;2023-07-16T13:30:07;4.37;;;2.30;;
4051;SDS011;2040;50.924;11.604;2023-07-16T13:32:33;4.83;;;1.97;;
4051;SDS011;2040;50.924;11.604;2023-07-16T13:35:02;5.60;;;2.17;;
4051;SDS011;2040;50.924;11.604;2023-07-16T13:37:28;4.63;;;2.03;;
4051;SDS011;2040;50.924;11.604;2023-07-16T13:39:55;5.13;;;2.37;;
4051;SDS011;2040;50.924;11.604;2023-07-16T13:42:21;3.20;;;1.83;;
4051;SDS011;2040;50.924;11.604;2023-07-16T13:44:47;4.50;;;2.20;;
4051;SDS011;2040;50.924;11.604;2023-07-16T13:47:13;6.10;;;2.43;;
4051;SDS011;2040;50.924;11.604;2023-07-16T13:49:39;3.07;;;1.97;;
4051;SDS011;2040;50.924;11.604;2023-07-16T13:52:07;4.77;;;2.37;;
4051;SDS011;2040;50.924;11.604;2023-07-16T13:54:37;6.60;;;2.70;;
4051;SDS011;2040;50.924;11.604;2023-07-16T13:57:09;6.13;;;2.37;;
4051;SDS011;2040;50.924;11.604;2023-07-16T13:59:35;5.27;;;2.53;;
4051;SDS011;2040;50.924;11.604;2023-07-16T14:02:03;6.10;;;2.47;;
4051;SDS011;2040;50.924;11.604;2023-07-16T14:04:32;4.23;;;2.20;;
4051;SDS011;2040;50.924;11.604;2023-07-16T14:06:58;3.03;;;1.80;;
4051;SDS011;2040;50.924;11.604;2023-07-16T14:09:27;4.20;;;2.87;;
4051;SDS011;2040;50.924;11.604;2023-07-16T14:12:02;3.00;;;2.13;;
4051;SDS011;2040;50.924;11.604;2023-07-16T14:14:38;6.27;;;2.30;;
4051;SDS011;2040;50.924;11.604;2023-07-16T14:17:04;2.67;;;2.07;;
4051;SDS011;2040;50.924;11.604;2023-07-16T14:19:30;4.00;;;2.10;;
4051;SDS011;2040;50.924;11.604;2023-07-16T14:21:56;5.43;;;2.33;;
4051;SDS011;2040;50.924;11.604;2023-07-16T14:24:25;4.83;;;2.37;;
4051;SDS011;2040;50.924;11.604;2023-07-16T14:27:58;5.10;;;2.60;;
4051;SDS011;2040;50.924;11.604;2023-07-16T14:31:04;5.60;;;2.40;;
4051;SDS011;2040;50.924;11.604;2023-07-16T14:33:47;3.07;;;2.30;;
4051;SDS011;2040;50.924;11.604;2023-07-16T14:40:31;3.50;;;1.77;;
4051;SDS011;2040;50.924;11.604;2023-07-16T14:43:50;7.60;;;2.60;;
4051;SDS011;2040;50.924;11.604;2023-07-16T14:47:07;3.87;;;2.33;;
4051;SDS011;2040;50.924;11.604;2023-07-16T14:49:33;6.83;;;2.60;;
4051;SDS011;2040;50.924;11.604;2023-07-16T14:52:00;3.83;;;1.77;;
4051;SDS011;2040;50.924;11.604;2023-07-16T14:54:40;7.53;;;2.70;;
4051;SDS011;2040;50.924;11.604;2023-07-16T14:58:03;4.57;;;1.80;;
4051;SDS011;2040;50.924;11.604;2023-07-16T15:01:18;3.40;;;2.10;;
4051;SDS011;2040;50.924;11.604;2023-07-16T15:03:52;4.17;;;2.70;;
4051;SDS011;2040;50.924;11.604;2023-07-16T15:09:22;8.27;;;2.63;;
4051;SDS011;2040;50.924;11.604;2023-07-16T15:12:08;5.70;;;2.57;;
4051;SDS011;2040;50.924;11.604;2023-07-16T15:15:23;7.33;;;2.40;;
4051;SDS011;2040;50.924;11.604;2023-07-16T15:18:25;7.43;;;2.90;;
4051;SDS011;2040;50.924;11.604;2023-07-16T15:21:06;8.30;;;2.27;;
4051;SDS011;2040;50.924;11.604;2023-07-16T15:23:54;4.00;;;2.20;;
4051;SDS011;2040;50.924;11.604;2023-07-16T15:26:38;6.50;;;2.20;;
4051;SDS011;2040;50.924;11.604;2023-07-16T15:29:30;5.63;;;2.00;;
4051;SDS011;2040;50.924;11.604;2023-07-16T15:32:22;6.50;;;2.50;;
4051;SDS011;2040;50.924;11.604;2023-07-16T15:34:50;5.00;;;2.13;;
4051;SDS011;2040;50.924;11.604;2023-07-16T15:37:31;6.23;;;2.70;;
4051;SDS011;2040;50.924;11.604;2023-07-16T15:40:13;5.80;;;2.23;;
4051;SDS011;2040;50.924;11.604;2023-07-16T15:42:42;2.87;;;2.23;;
4051;SDS011;2040;50.924;11.604;2023-07-16T15:45:11;3.93;;;2.27;;